sensor_id;sensor_type;location;lat;lon;timestamp;pressure;altitude;pressure_sealevel;temperature;humidity
27712;BME280;2377;51.734;8.950;2023-03-25T00:00:08;96540.09;;;9.37;85.14
27712;BME280;2377;51.734;8.950;2023-03-25T00:02:41;96540.56;;;9.34;84.79
27712;BME280;2377;51.734;8.950;2023-03-25T00:05:10;96539.97;;;9.27;84.74
27712;BME280;2377;51.734;8.950;2023-03-25T00:07:39;96540.72;;;9.27;84.92
27712;BME280;2377;51.734;8.950;2023-03-25T00:10:08;96540.72;;;9.27;84.85
27712;BME280;2377;51.734;8.950;2023-03-25T00:12:36;96541.31;;;9.13;85.67
27712;BME280;2377;51.734;8.950;2023-03-25T00:15:04;96543.84;;;9.13;85.36
27712;BME280;2377;51.734;8.950;2023-03-25T00:17:31;96541.97;;;9.25;85.84
27712;BME280;2377;51.734;8.950;2023-03-25T00:20:03;96551.63;;;9.23;86.24
27712;BME280;2377;51.734;8.950;2023-03-25T00:22:36;96550.69;;;9.29;85.09
27712;BME280;2377;51.734;8.950;2023-03-25T00:25:07;96555.09;;;9.34;85.52
27712;BME280;2377;51.734;8.950;2023-03-25T00:27:34;96545.59;;;9.29;85.07
27712;BME280;2377;51.734;8.950;2023-03-25T00:30:03;96552.72;;;9.27;85.67
27712;BME280;2377;51.734;8.950;2023-03-25T00:32:31;96562.25;;;9.37;85.42
27712;BME280;2377;51.734;8.950;2023-03-25T00:34:58;96560.47;;;9.37;85.61
27712;BME280;2377;51.734;8.950;2023-03-25T00:37:27;96554.63;;;9.37;85.84
27712;BME280;2377;51.734;8.950;2023-03-25T00:39:54;96557.94;;;9.37;85.96
27712;BME280;2377;51.734;8.950;2023-03-25T00:42:21;96554.91;;;9.40;85.68
27712;BME280;2377;51.734;8.950;2023-03-25T00:44:51;96554.31;;;9.33;86.18
27712;BME280;2377;51.734;8.950;2023-03-25T00:47:19;96555.38;;;9.37;86.48
27712;BME280;2377;51.734;8.950;2023-03-25T00:49:47;96560.47;;;9.37;87.19
27712;BME280;2377;51.734;8.950;2023-03-25T00:52:14;96550.22;;;9.32;87.60
27712;BME280;2377;51.734;8.950;2023-03-25T00:54:43;96559.19;;;9.35;87.68
27712;BME280;2377;51.734;8.950;2023-03-25T00:57:10;96565.34;;;9.39;88.30
27712;BME280;2377;51.734;8.950;2023-03-25T00:59:38;96558.34;;;9.29;88.55
27712;BME280;2377;51.734;8.950;2023-03-25T01:02:05;96559.22;;;9.18;89.37
27712;BME280;2377;51.734;8.950;2023-03-25T01:04:33;96564.25;;;9.13;89.30
27712;BME280;2377;51.734;8.950;2023-03-25T01:07:00;96564.69;;;9.09;89.29
27712;BME280;2377;51.734;8.950;2023-03-25T01:09:28;96571.66;;;8.97;89.55
27712;BME280;2377;51.734;8.950;2023-03-25T01:11:57;96569.50;;;8.89;88.96
27712;BME280;2377;51.734;8.950;2023-03-25T01:14:24;96584.19;;;8.82;88.99
27712;BME280;2377;51.734;8.950;2023-03-25T01:16:52;96566.25;;;8.94;88.55
27712;BME280;2377;51.734;8.950;2023-03-25T01:19:21;96558.59;;;8.77;87.38
27712;BME280;2377;51.734;8.950;2023-03-25T01:21:48;96565.63;;;8.70;88.87
27712;BME280;2377;51.734;8.950;2023-03-25T01:24:16;96552.88;;;8.70;89.07
27712;BME280;2377;51.734;8.950;2023-03-25T01:26:46;96562.09;;;8.71;89.86
27712;BME280;2377;51.734;8.950;2023-03-25T01:29:19;96564.78;;;8.64;90.11
27712;BME280;2377;51.734;8.950;2023-03-25T01:31:46;96569.94;;;8.69;90.14
27712;BME280;2377;51.734;8.950;2023-03-25T01:34:14;96567.31;;;8.64;89.64
27712;BME280;2377;51.734;8.950;2023-03-25T01:36:42;96569.03;;;8.75;90.22
27712;BME280;2377;51.734;8.950;2023-03-25T01:39:13;96564.63;;;8.71;89.74
27712;BME280;2377;51.734;8.950;2023-03-25T01:41:42;96563.69;;;8.77;88.89
27712;BME280;2377;51.734;8.950;2023-03-25T01:47:31;96550.34;;;8.70;89.83
27712;BME280;2377;51.734;8.950;2023-03-25T01:49:59;96545.16;;;8.64;89.33
27712;BME280;2377;51.734;8.950;2023-03-25T01:52:26;96552.25;;;8.62;89.39
27712;BME280;2377;51.734;8.950;2023-03-25T01:54:57;96549.34;;;8.71;89.18
27712;BME280;2377;51.734;8.950;2023-03-25T01:57:25;96548.25;;;8.66;89.56
27712;BME280;2377;51.734;8.950;2023-03-25T01:59:54;96548.03;;;8.68;89.56
27712;BME280;2377;51.734;8.950;2023-03-25T02:02:22;96547.72;;;8.64;89.60
27712;BME280;2377;51.734;8.950;2023-03-25T02:05:07;96544.06;;;8.60;89.53
27712;BME280;2377;51.734;8.950;2023-03-25T02:07:40;96536.22;;;8.62;89.34
27712;BME280;2377;51.734;8.950;2023-03-25T02:10:13;96539.31;;;8.47;89.89
27712;BME280;2377;51.734;8.950;2023-03-25T02:12:40;96531.75;;;8.52;89.56
27712;BME280;2377;51.734;8.950;2023-03-25T02:15:11;96530.88;;;8.46;90.12
27712;BME280;2377;51.734;8.950;2023-03-25T02:17:58;96518.00;;;8.53;89.81
27712;BME280;2377;51.734;8.950;2023-03-25T02:20:52;96520.38;;;8.43;89.50
27712;BME280;2377;51.734;8.950;2023-03-25T02:24:08;96509.13;;;8.56;89.33
27712;BME280;2377;51.734;8.950;2023-03-25T02:27:16;96519.22;;;8.51;88.63
27712;BME280;2377;51.734;8.950;2023-03-25T02:30:11;96512.81;;;8.48;89.21
27712;BME280;2377;51.734;8.950;2023-03-25T02:33:20;96502.41;;;8.50;89.08
27712;BME280;2377;51.734;8.950;2023-03-25T02:36:35;96506.81;;;8.54;88.39
27712;BME280;2377;51.734;8.950;2023-03-25T02:39:13;96509.91;;;8.56;88.59
27712;BME280;2377;51.734;8.950;2023-03-25T02:41:51;96504.28;;;8.54;88.38
27712;BME280;2377;51.734;8.950;2023-03-25T02:44:29;96501.41;;;8.51;88.16
27712;BME280;2377;51.734;8.950;2023-03-25T02:47:01;96504.63;;;8.63;88.28
27712;BME280;2377;51.734;8.950;2023-03-25T02:49:33;96501.78;;;8.59;88.63
27712;BME280;2377;51.734;8.950;2023-03-25T02:52:10;96486.81;;;8.63;88.04
27712;BME280;2377;51.734;8.950;2023-03-25T02:54:43;96492.22;;;8.50;88.94
27712;BME280;2377;51.734;8.950;2023-03-25T02:57:17;96505.25;;;8.53;88.76
27712;BME280;2377;51.734;8.950;2023-03-25T02:59:46;96502.50;;;8.55;88.28
27712;BME280;2377;51.734;8.950;2023-03-25T03:02:16;96496.09;;;8.52;87.98
27712;BME280;2377;51.734;8.950;2023-03-25T03:04:46;96499.72;;;8.56;88.64
27712;BME280;2377;51.734;8.950;2023-03-25T03:07:22;96498.25;;;8.60;87.29
27712;BME280;2377;51.734;8.950;2023-03-25T03:09:59;96492.09;;;8.56;87.64
27712;BME280;2377;51.734;8.950;2023-03-25T03:12:54;96489.84;;;8.60;88.24
27712;BME280;2377;51.734;8.950;2023-03-25T03:15:35;96497.06;;;8.51;88.33
27712;BME280;2377;51.734;8.950;2023-03-25T03:18:13;96493.81;;;8.39;88.54
27712;BME280;2377;51.734;8.950;2023-03-25T03:20:56;96492.84;;;8.57;88.36
27712;BME280;2377;51.734;8.950;2023-03-25T03:23:32;96494.78;;;8.50;88.50
27712;BME280;2377;51.734;8.950;2023-03-25T03:26:10;96492.78;;;8.52;88.44
27712;BME280;2377;51.734;8.950;2023-03-25T03:28:47;96496.63;;;8.54;88.32
27712;BME280;2377;51.734;8.950;2023-03-25T03:31:24;96494.78;;;8.50;88.48
27712;BME280;2377;51.734;8.950;2023-03-25T03:34:00;96486.75;;;8.41;88.25
27712;BME280;2377;51.734;8.950;2023-03-25T03:36:37;96483.22;;;8.42;88.22
27712;BME280;2377;51.734;8.950;2023-03-25T03:39:14;96487.69;;;8.52;87.80
27712;BME280;2377;51.734;8.950;2023-03-25T03:41:51;96492.78;;;8.52;87.51
27712;BME280;2377;51.734;8.950;2023-03-25T03:44:23;96491.06;;;8.57;87.22
27712;BME280;2377;51.734;8.950;2023-03-25T03:46:57;96478.50;;;8.51;86.30
27712;BME280;2377;51.734;8.950;2023-03-25T03:49:34;96489.72;;;8.38;86.26
27712;BME280;2377;51.734;8.950;2023-03-25T03:52:09;96495.53;;;8.50;86.67
27712;BME280;2377;51.734;8.950;2023-03-25T03:54:44;96491.84;;;8.41;86.26
27712;BME280;2377;51.734;8.950;2023-03-25T03:57:21;96496.72;;;8.42;86.51
27712;BME280;2377;51.734;8.950;2023-03-25T03:59:58;96493.69;;;8.45;86.73
27712;BME280;2377;51.734;8.950;2023-03-25T04:02:38;96492.78;;;8.52;86.68
27712;BME280;2377;51.734;8.950;2023-03-25T04:05:11;96502.16;;;8.51;86.88
27712;BME280;2377;51.734;8.950;2023-03-25T04:07:43;96500.03;;;8.43;87.07
27712;BME280;2377;51.734;8.950;2023-03-25T04:10:27;96501.66;;;8.49;86.71
27712;BME280;2377;51.734;8.950;2023-03-25T04:13:04;96494.47;;;8.46;87.03
27712;BME280;2377;51.734;8.950;2023-03-25T04:15:33;96497.25;;;8.44;87.38
27712;BME280;2377;51.734;8.950;2023-03-25T04:18:01;96506.53;;;8.39;87.74
27712;BME280;2377;51.734;8.950;2023-03-25T04:20:32;96499.25;;;8.42;87.71
27712;BME280;2377;51.734;8.950;2023-03-25T04:23:01;96497.69;;;8.41;87.04
27712;BME280;2377;51.734;8.950;2023-03-25T04:25:30;96497.69;;;8.41;87.38
27712;BME280;2377;51.734;8.950;2023-03-25T04:28:00;96497.38;;;8.38;87.31
27712;BME280;2377;51.734;8.950;2023-03-25T04:30:28;96501.38;;;8.34;86.94
27712;BME280;2377;51.734;8.950;2023-03-25T04:32:55;96496.06;;;8.35;88.13
27712;BME280;2377;51.734;8.950;2023-03-25T04:35:22;96501.44;;;8.39;87.80
27712;BME280;2377;51.734;8.950;2023-03-25T04:37:50;96489.41;;;8.34;87.48
27712;BME280;2377;51.734;8.950;2023-03-25T04:40:21;96501.50;;;8.27;87.69
27712;BME280;2377;51.734;8.950;2023-03-25T04:42:50;96499.28;;;8.31;87.42
27712;BME280;2377;51.734;8.950;2023-03-25T04:45:19;96500.50;;;8.40;87.23
27712;BME280;2377;51.734;8.950;2023-03-25T04:47:48;96505.78;;;8.38;87.07
27712;BME280;2377;51.734;8.950;2023-03-25T04:50:22;96509.69;;;8.29;87.61
27712;BME280;2377;51.734;8.950;2023-03-25T04:52:50;96505.06;;;8.26;88.05
27712;BME280;2377;51.734;8.950;2023-03-25T04:55:18;96507.16;;;8.29;87.47
27712;BME280;2377;51.734;8.950;2023-03-25T04:57:46;96509.09;;;8.39;87.32
27712;BME280;2377;51.734;8.950;2023-03-25T05:00:16;96498.91;;;8.39;87.98
27712;BME280;2377;51.734;8.950;2023-03-25T05:02:47;96497.25;;;8.44;87.08
27712;BME280;2377;51.734;8.950;2023-03-25T05:05:18;96487.94;;;8.38;87.35
27712;BME280;2377;51.734;8.950;2023-03-25T05:07:46;96495.41;;;8.40;87.01
27712;BME280;2377;51.734;8.950;2023-03-25T05:10:14;96497.69;;;8.41;87.60
27712;BME280;2377;51.734;8.950;2023-03-25T05:12:42;96491.38;;;8.44;86.75
27712;BME280;2377;51.734;8.950;2023-03-25T05:15:10;96498.28;;;8.32;87.19
27712;BME280;2377;51.734;8.950;2023-03-25T05:17:38;96501.91;;;8.36;88.01
27712;BME280;2377;51.734;8.950;2023-03-25T05:20:07;96511.34;;;8.35;88.80
27712;BME280;2377;51.734;8.950;2023-03-25T05:22:35;96498.91;;;8.39;88.54
27712;BME280;2377;51.734;8.950;2023-03-25T05:25:04;96513.13;;;8.23;89.37
27712;BME280;2377;51.734;8.950;2023-03-25T05:27:31;96513.38;;;8.21;89.11
27712;BME280;2377;51.734;8.950;2023-03-25T05:29:59;96516.28;;;8.13;90.21
27712;BME280;2377;51.734;8.950;2023-03-25T05:32:28;96511.81;;;8.20;90.28
27712;BME280;2377;51.734;8.950;2023-03-25T05:34:58;96517.25;;;8.24;90.48
27712;BME280;2377;51.734;8.950;2023-03-25T05:37:27;96517.09;;;8.31;89.78
27712;BME280;2377;51.734;8.950;2023-03-25T05:39:54;96511.25;;;8.30;89.45
27712;BME280;2377;51.734;8.950;2023-03-25T05:42:23;96518.47;;;8.21;89.73
27712;BME280;2377;51.734;8.950;2023-03-25T05:44:51;96515.25;;;8.26;89.91
27712;BME280;2377;51.734;8.950;2023-03-25T05:47:19;96516.63;;;8.34;89.42
27712;BME280;2377;51.734;8.950;2023-03-25T05:49:49;96520.41;;;8.31;89.77
27712;BME280;2377;51.734;8.950;2023-03-25T05:52:18;96520.09;;;8.27;89.76
27712;BME280;2377;51.734;8.950;2023-03-25T05:54:46;96517.03;;;8.25;91.28
27712;BME280;2377;51.734;8.950;2023-03-25T05:57:16;96513.56;;;8.32;90.55
27712;BME280;2377;51.734;8.950;2023-03-25T05:59:43;96522.97;;;8.31;90.44
27712;BME280;2377;51.734;8.950;2023-03-25T06:02:13;96518.97;;;8.35;90.04
27712;BME280;2377;51.734;8.950;2023-03-25T06:04:41;96531.63;;;8.30;90.65
27712;BME280;2377;51.734;8.950;2023-03-25T06:07:10;96520.41;;;8.31;91.25
27712;BME280;2377;51.734;8.950;2023-03-25T06:09:47;96531.84;;;8.29;91.23
27712;BME280;2377;51.734;8.950;2023-03-25T06:12:16;96523.09;;;8.24;91.57
27712;BME280;2377;51.734;8.950;2023-03-25T06:14:45;96527.59;;;8.34;90.98
27712;BME280;2377;51.734;8.950;2023-03-25T06:17:13;96525.28;;;8.33;90.57
27712;BME280;2377;51.734;8.950;2023-03-25T06:19:40;96524.97;;;8.29;90.56
27712;BME280;2377;51.734;8.950;2023-03-25T06:22:10;96520.63;;;8.30;90.87
27712;BME280;2377;51.734;8.950;2023-03-25T06:24:38;96526.75;;;8.29;90.40
27712;BME280;2377;51.734;8.950;2023-03-25T06:27:12;96525.09;;;8.22;89.47
27712;BME280;2377;51.734;8.950;2023-03-25T06:29:39;96530.06;;;8.29;90.50
27712;BME280;2377;51.734;8.950;2023-03-25T06:32:08;96524.81;;;8.36;90.63
27712;BME280;2377;51.734;8.950;2023-03-25T06:34:36;96537.00;;;8.34;88.93
27712;BME280;2377;51.734;8.950;2023-03-25T06:37:04;96539.34;;;8.35;88.87
27712;BME280;2377;51.734;8.950;2023-03-25T06:39:31;96541.84;;;8.47;88.77
27712;BME280;2377;51.734;8.950;2023-03-25T06:41:59;96535.28;;;8.51;87.99
27712;BME280;2377;51.734;8.950;2023-03-25T06:44:28;96544.47;;;8.52;87.88
27712;BME280;2377;51.734;8.950;2023-03-25T06:46:55;96547.25;;;8.51;87.80
27712;BME280;2377;51.734;8.950;2023-03-25T06:49:22;96548.47;;;8.48;87.67
27712;BME280;2377;51.734;8.950;2023-03-25T06:51:49;96546.41;;;8.33;87.85
27712;BME280;2377;51.734;8.950;2023-03-25T06:54:16;96547.91;;;8.46;88.40
27712;BME280;2377;51.734;8.950;2023-03-25T06:56:43;96531.59;;;8.59;87.51
27712;BME280;2377;51.734;8.950;2023-03-25T06:59:10;96539.38;;;8.52;87.21
27712;BME280;2377;51.734;8.950;2023-03-25T07:01:39;96556.78;;;8.43;87.31
27712;BME280;2377;51.734;8.950;2023-03-25T07:04:07;96560.34;;;8.42;88.30
27712;BME280;2377;51.734;8.950;2023-03-25T07:06:34;96553.56;;;8.48;88.84
27712;BME280;2377;51.734;8.950;2023-03-25T07:09:02;96560.22;;;8.49;88.55
27712;BME280;2377;51.734;8.950;2023-03-25T07:11:30;96554.78;;;8.45;88.71
27712;BME280;2377;51.734;8.950;2023-03-25T07:13:59;96556.13;;;8.36;88.82
27712;BME280;2377;51.734;8.950;2023-03-25T07:16:26;96554.88;;;8.51;89.33
27712;BME280;2377;51.734;8.950;2023-03-25T07:18:55;96555.97;;;8.55;88.38
27712;BME280;2377;51.734;8.950;2023-03-25T07:21:24;96559.91;;;8.62;88.51
27712;BME280;2377;51.734;8.950;2023-03-25T07:23:52;96552.34;;;8.67;87.53
27712;BME280;2377;51.734;8.950;2023-03-25T07:26:19;96555.97;;;8.72;87.71
27712;BME280;2377;51.734;8.950;2023-03-25T07:28:46;96550.66;;;8.73;87.07
27712;BME280;2377;51.734;8.950;2023-03-25T07:31:15;96548.34;;;8.72;86.94
27712;BME280;2377;51.734;8.950;2023-03-25T07:33:42;96559.22;;;8.84;86.69
27712;BME280;2377;51.734;8.950;2023-03-25T07:36:12;96549.19;;;8.77;86.82
27712;BME280;2377;51.734;8.950;2023-03-25T07:38:39;96552.03;;;8.81;86.59
27712;BME280;2377;51.734;8.950;2023-03-25T07:41:09;96552.13;;;8.86;86.11
27712;BME280;2377;51.734;8.950;2023-03-25T07:43:36;96558.53;;;8.88;86.10
27712;BME280;2377;51.734;8.950;2023-03-25T07:46:04;96552.38;;;8.84;86.67
27712;BME280;2377;51.734;8.950;2023-03-25T07:48:32;96560.38;;;8.76;86.18
27712;BME280;2377;51.734;8.950;2023-03-25T07:50:59;96557.97;;;8.70;86.00
27712;BME280;2377;51.734;8.950;2023-03-25T07:53:27;96561.00;;;8.66;87.11
27712;BME280;2377;51.734;8.950;2023-03-25T07:55:55;96550.81;;;8.66;87.14
27712;BME280;2377;51.734;8.950;2023-03-25T07:58:22;96539.59;;;8.51;86.24
27712;BME280;2377;51.734;8.950;2023-03-25T08:00:49;96552.66;;;8.54;86.64
27712;BME280;2377;51.734;8.950;2023-03-25T08:03:16;96558.19;;;8.51;87.30
27712;BME280;2377;51.734;8.950;2023-03-25T08:05:45;96539.38;;;8.52;86.22
27712;BME280;2377;51.734;8.950;2023-03-25T08:08:13;96543.53;;;8.58;87.01
27712;BME280;2377;51.734;8.950;2023-03-25T08:10:43;96541.53;;;8.60;86.06
27712;BME280;2377;51.734;8.950;2023-03-25T08:13:11;96546.47;;;8.50;84.62
27712;BME280;2377;51.734;8.950;2023-03-25T08:15:39;96551.28;;;8.63;85.46
27712;BME280;2377;51.734;8.950;2023-03-25T08:18:09;96552.34;;;8.67;85.50
27712;BME280;2377;51.734;8.950;2023-03-25T08:20:36;96556.28;;;8.75;85.28
27712;BME280;2377;51.734;8.950;2023-03-25T08:23:03;96554.88;;;8.67;84.79
27712;BME280;2377;51.734;8.950;2023-03-25T08:25:35;96564.84;;;8.69;85.44
27712;BME280;2377;51.734;8.950;2023-03-25T08:28:04;96580.59;;;8.49;86.60
27712;BME280;2377;51.734;8.950;2023-03-25T08:30:31;96571.31;;;8.60;87.69
27712;BME280;2377;51.734;8.950;2023-03-25T08:33:03;96569.00;;;8.58;88.46
27712;BME280;2377;51.734;8.950;2023-03-25T08:35:33;96584.44;;;8.52;88.36
27712;BME280;2377;51.734;8.950;2023-03-25T08:38:01;96586.31;;;8.56;89.02
27712;BME280;2377;51.734;8.950;2023-03-25T08:40:30;96594.31;;;8.65;88.80
27712;BME280;2377;51.734;8.950;2023-03-25T08:42:57;96581.50;;;8.43;88.04
27712;BME280;2377;51.734;8.950;2023-03-25T08:45:26;96609.13;;;8.51;87.86
27712;BME280;2377;51.734;8.950;2023-03-25T08:47:53;96598.41;;;8.49;89.97
27712;BME280;2377;51.734;8.950;2023-03-25T08:50:20;96597.19;;;8.52;91.09
27712;BME280;2377;51.734;8.950;2023-03-25T08:52:47;96586.59;;;8.31;91.05
27712;BME280;2377;51.734;8.950;2023-03-25T08:55:14;96595.78;;;8.32;91.78
27712;BME280;2377;51.734;8.950;2023-03-25T08:57:42;96602.66;;;8.32;93.05
27712;BME280;2377;51.734;8.950;2023-03-25T09:00:11;96602.19;;;8.35;93.70
27712;BME280;2377;51.734;8.950;2023-03-25T09:02:41;96607.50;;;8.45;94.47
27712;BME280;2377;51.734;8.950;2023-03-25T09:05:10;96594.72;;;8.74;93.14
27712;BME280;2377;51.734;8.950;2023-03-25T09:07:38;96602.44;;;8.96;93.73
27712;BME280;2377;51.734;8.950;2023-03-25T09:10:07;96596.28;;;9.25;94.03
27712;BME280;2377;51.734;8.950;2023-03-25T09:12:34;96606.16;;;9.39;93.27
27712;BME280;2377;51.734;8.950;2023-03-25T09:15:02;96601.56;;;9.58;95.01
27712;BME280;2377;51.734;8.950;2023-03-25T09:17:29;96595.28;;;9.65;92.38
27712;BME280;2377;51.734;8.950;2023-03-25T09:19:57;96607.47;;;9.63;91.64
27712;BME280;2377;51.734;8.950;2023-03-25T09:22:25;96602.00;;;9.71;90.23
27712;BME280;2377;51.734;8.950;2023-03-25T09:24:52;96597.50;;;9.79;88.10
27712;BME280;2377;51.734;8.950;2023-03-25T09:27:19;96590.41;;;9.64;88.00
27712;BME280;2377;51.734;8.950;2023-03-25T09:29:46;96599.94;;;9.73;86.96
27712;BME280;2377;51.734;8.950;2023-03-25T09:32:13;96568.50;;;9.46;85.70
27712;BME280;2377;51.734;8.950;2023-03-25T09:34:40;96597.72;;;9.38;86.27
27712;BME280;2377;51.734;8.950;2023-03-25T09:37:10;96596.56;;;9.46;86.00
27712;BME280;2377;51.734;8.950;2023-03-25T09:39:37;96592.94;;;9.42;85.26
27712;BME280;2377;51.734;8.950;2023-03-25T09:42:25;96590.47;;;9.30;84.91
27712;BME280;2377;51.734;8.950;2023-03-25T09:45:05;96595.81;;;9.12;84.75
27712;BME280;2377;51.734;8.950;2023-03-25T09:47:53;96594.66;;;9.19;84.97
27712;BME280;2377;51.734;8.950;2023-03-25T09:50:22;96589.16;;;9.27;86.70
27712;BME280;2377;51.734;8.950;2023-03-25T09:52:56;96598.19;;;9.35;85.35
27712;BME280;2377;51.734;8.950;2023-03-25T09:55:30;96586.72;;;9.55;85.05
27712;BME280;2377;51.734;8.950;2023-03-25T09:58:22;96580.56;;;9.50;83.97
27712;BME280;2377;51.734;8.950;2023-03-25T10:00:55;96575.94;;;9.69;83.68
27712;BME280;2377;51.734;8.950;2023-03-25T10:03:30;96574.97;;;9.76;84.08
27712;BME280;2377;51.734;8.950;2023-03-25T10:06:12;96576.00;;;9.74;81.44
27712;BME280;2377;51.734;8.950;2023-03-25T10:09:12;96575.34;;;9.84;81.38
27712;BME280;2377;51.734;8.950;2023-03-25T10:11:56;96573.59;;;9.90;81.69
27712;BME280;2377;51.734;8.950;2023-03-25T10:14:38;96567.16;;;9.82;80.05
27712;BME280;2377;51.734;8.950;2023-03-25T10:17:24;96564.97;;;9.69;80.88
27712;BME280;2377;51.734;8.950;2023-03-25T10:20:03;96565.91;;;9.85;79.35
27712;BME280;2377;51.734;8.950;2023-03-25T10:22:41;96563.72;;;9.71;79.19
27712;BME280;2377;51.734;8.950;2023-03-25T10:25:22;96570.72;;;9.81;77.79
27712;BME280;2377;51.734;8.950;2023-03-25T10:27:51;96562.66;;;9.67;77.69
27712;BME280;2377;51.734;8.950;2023-03-25T10:30:22;96563.72;;;9.93;78.50
27712;BME280;2377;51.734;8.950;2023-03-25T10:32:55;96565.63;;;10.08;78.07
27712;BME280;2377;51.734;8.950;2023-03-25T10:35:27;96564.03;;;10.24;77.82
27712;BME280;2377;51.734;8.950;2023-03-25T10:38:01;96575.00;;;10.25;77.50
27712;BME280;2377;51.734;8.950;2023-03-25T10:40:37;96576.03;;;10.02;77.39
27712;BME280;2377;51.734;8.950;2023-03-25T10:43:16;96575.56;;;10.05;78.65
27712;BME280;2377;51.734;8.950;2023-03-25T10:45:46;96578.53;;;9.97;78.05
27712;BME280;2377;51.734;8.950;2023-03-25T10:48:19;96577.53;;;9.98;78.53
27712;BME280;2377;51.734;8.950;2023-03-25T10:50:50;96568.91;;;10.04;79.72
27712;BME280;2377;51.734;8.950;2023-03-25T10:53:23;96575.84;;;10.08;81.31
27712;BME280;2377;51.734;8.950;2023-03-25T10:55:58;96581.22;;;10.07;79.50
27712;BME280;2377;51.734;8.950;2023-03-25T10:58:28;96579.69;;;10.11;81.54
27712;BME280;2377;51.734;8.950;2023-03-25T11:00:55;96586.56;;;10.05;80.45
27712;BME280;2377;51.734;8.950;2023-03-25T11:03:29;96575.44;;;9.94;81.17
27712;BME280;2377;51.734;8.950;2023-03-25T11:05:58;96579.69;;;9.84;80.74
27712;BME280;2377;51.734;8.950;2023-03-25T11:08:26;96582.06;;;9.90;80.75
27712;BME280;2377;51.734;8.950;2023-03-25T11:10:54;96575.03;;;10.03;80.89
27712;BME280;2377;51.734;8.950;2023-03-25T11:13:28;96585.47;;;10.01;81.40
27712;BME280;2377;51.734;8.950;2023-03-25T11:16:00;96576.75;;;10.19;80.16
27712;BME280;2377;51.734;8.950;2023-03-25T11:18:32;96583.28;;;10.10;79.17
27712;BME280;2377;51.734;8.950;2023-03-25T11:21:05;96566.09;;;10.27;77.23
27712;BME280;2377;51.734;8.950;2023-03-25T11:23:35;96565.97;;;10.39;77.96
27712;BME280;2377;51.734;8.950;2023-03-25T11:26:11;96571.00;;;10.29;80.12
27712;BME280;2377;51.734;8.950;2023-03-25T11:28:43;96578.50;;;10.41;79.02
27712;BME280;2377;51.734;8.950;2023-03-25T11:31:15;96568.00;;;10.37;79.36
27712;BME280;2377;51.734;8.950;2023-03-25T11:33:45;96574.41;;;10.18;80.88
27712;BME280;2377;51.734;8.950;2023-03-25T11:36:24;96571.94;;;10.01;83.30
27712;BME280;2377;51.734;8.950;2023-03-25T11:38:58;96587.31;;;10.06;82.99
27712;BME280;2377;51.734;8.950;2023-03-25T11:41:35;96578.66;;;10.07;84.01
27712;BME280;2377;51.734;8.950;2023-03-25T11:44:05;96561.75;;;10.01;84.26
27712;BME280;2377;51.734;8.950;2023-03-25T11:46:33;96565.31;;;10.00;85.58
27712;BME280;2377;51.734;8.950;2023-03-25T11:49:09;96559.00;;;10.07;85.08
27712;BME280;2377;51.734;8.950;2023-03-25T11:51:37;96557.84;;;10.20;85.00
27712;BME280;2377;51.734;8.950;2023-03-25T11:54:08;96560.53;;;10.30;82.85
27712;BME280;2377;51.734;8.950;2023-03-25T11:56:41;96556.47;;;10.34;81.69
27712;BME280;2377;51.734;8.950;2023-03-25T11:59:21;96555.00;;;10.39;81.23
27712;BME280;2377;51.734;8.950;2023-03-25T12:01:58;96554.03;;;10.45;81.32
27712;BME280;2377;51.734;8.950;2023-03-25T12:04:30;96560.19;;;10.49;81.99
27712;BME280;2377;51.734;8.950;2023-03-25T12:07:00;96551.03;;;10.53;81.82
27712;BME280;2377;51.734;8.950;2023-03-25T12:09:29;96556.06;;;10.43;82.85
27712;BME280;2377;51.734;8.950;2023-03-25T12:12:23;96576.91;;;10.34;84.40
27712;BME280;2377;51.734;8.950;2023-03-25T12:15:06;96583.22;;;10.05;85.20
27712;BME280;2377;51.734;8.950;2023-03-25T12:17:54;96589.22;;;9.93;87.36
27712;BME280;2377;51.734;8.950;2023-03-25T12:20:31;96595.16;;;9.77;88.71
27712;BME280;2377;51.734;8.950;2023-03-25T12:23:13;96584.84;;;9.67;91.76
27712;BME280;2377;51.734;8.950;2023-03-25T12:25:54;96577.84;;;9.79;91.56
27712;BME280;2377;51.734;8.950;2023-03-25T12:28:47;96561.28;;;9.82;89.98
27712;BME280;2377;51.734;8.950;2023-03-25T12:31:34;96569.75;;;9.65;92.60
27712;BME280;2377;51.734;8.950;2023-03-25T12:34:16;96561.44;;;9.75;92.03
27712;BME280;2377;51.734;8.950;2023-03-25T12:37:00;96560.50;;;9.81;93.37
27712;BME280;2377;51.734;8.950;2023-03-25T12:39:45;96548.47;;;9.77;92.69
27712;BME280;2377;51.734;8.950;2023-03-25T12:42:31;96559.09;;;9.90;92.13
27712;BME280;2377;51.734;8.950;2023-03-25T12:45:55;96545.84;;;9.93;90.33
27712;BME280;2377;51.734;8.950;2023-03-25T12:48:49;96561.69;;;9.95;91.17
27712;BME280;2377;51.734;8.950;2023-03-25T12:51:36;96554.22;;;9.89;91.58
27712;BME280;2377;51.734;8.950;2023-03-25T12:54:27;96560.25;;;9.83;91.99
27712;BME280;2377;51.734;8.950;2023-03-25T12:57:05;96558.59;;;9.93;96.21
27712;BME280;2377;51.734;8.950;2023-03-25T13:00:05;96551.94;;;10.14;96.31
27712;BME280;2377;51.734;8.950;2023-03-25T13:06:25;96558.41;;;10.27;93.17
27712;BME280;2377;51.734;8.950;2023-03-25T13:09:01;96542.28;;;10.22;91.29
27712;BME280;2377;51.734;8.950;2023-03-25T13:11:38;96538.00;;;10.27;90.41
27712;BME280;2377;51.734;8.950;2023-03-25T13:14:15;96559.41;;;10.21;86.05
27712;BME280;2377;51.734;8.950;2023-03-25T13:16:46;96562.22;;;10.25;85.02
27712;BME280;2377;51.734;8.950;2023-03-25T13:19:18;96553.66;;;10.31;83.75
27712;BME280;2377;51.734;8.950;2023-03-25T13:21:53;96543.09;;;10.27;84.40
27712;BME280;2377;51.734;8.950;2023-03-25T13:24:35;96559.88;;;10.18;83.68
27712;BME280;2377;51.734;8.950;2023-03-25T13:27:05;96593.09;;;9.96;85.61
27712;BME280;2377;51.734;8.950;2023-03-25T13:29:38;96584.47;;;9.80;88.67
27712;BME280;2377;51.734;8.950;2023-03-25T13:32:16;96575.06;;;9.81;91.23
27712;BME280;2377;51.734;8.950;2023-03-25T13:34:50;96575.44;;;9.94;90.81
27712;BME280;2377;51.734;8.950;2023-03-25T13:37:24;96575.03;;;10.03;90.97
27712;BME280;2377;51.734;8.950;2023-03-25T13:40:06;96571.16;;;10.22;91.09
27712;BME280;2377;51.734;8.950;2023-03-25T13:42:43;96571.41;;;9.99;88.54
27712;BME280;2377;51.734;8.950;2023-03-25T13:45:17;96563.94;;;10.14;87.67
27712;BME280;2377;51.734;8.950;2023-03-25T13:47:51;96566.22;;;10.15;88.20
27712;BME280;2377;51.734;8.950;2023-03-25T13:50:25;96558.25;;;10.07;86.77
27712;BME280;2377;51.734;8.950;2023-03-25T13:53:02;96568.75;;;9.88;86.96
27712;BME280;2377;51.734;8.950;2023-03-25T13:55:36;96565.38;;;10.05;85.07